Time;durP1;ratioP1;P1;durP2;ratioP2;P2;SDS_P1;SDS_P2;PMS_P1;PMS_P2;Temp;Humidity;BMP_temperature;BMP_pressure;BME280_temperature;BME280_humidity;BME280_pressure;Samples;Min_cycle;Max_cycle;Signal;HPM_P1;HPM_P2
2022/01/03 00:00:21;;;;;;;1.23;0.80;;;;;;;;;;5031447;28;20271;-75
2022/01/03 00:02:47;;;;;;;0.70;0.70;;;;;;;;;;5014785;28;20180;-75
2022/01/03 00:05:13;;;;;;;1.23;0.63;;;;;;;;;;5031329;28;20560;-75
2022/01/03 00:07:41;;;;;;;1.27;0.87;;;;;;;;;;5031233;28;20185;-75
2022/01/03 00:10:08;;;;;;;1.77;0.80;;;;;;;;;;5031417;28;20671;-75
2022/01/03 00:12:34;;;;;;;1.77;0.80;;;;;;;;;;5014742;28;20185;-75
2022/01/03 00:15:00;;;;;;;1.57;0.80;;;;;;;;;;5031510;28;20200;-75
2022/01/03 00:17:26;;;;;;;0.60;0.60;;;;;;;;;;5031129;28;20206;-75
2022/01/03 00:19:52;;;;;;;1.60;0.80;;;;;;;;;;5031337;28;20317;-75
2022/01/03 00:22:23;;;;;;;1.33;0.57;;;;;;;;;;5031178;28;20264;-75
2022/01/03 00:24:54;;;;;;;1.20;0.90;;;;;;;;;;5031351;28;20570;-75
2022/01/03 00:27:22;;;;;;;1.87;0.80;;;;;;;;;;5030985;28;20180;-75
2022/01/03 00:29:51;;;;;;;1.20;0.60;;;;;;;;;;5031002;28;20223;-75
2022/01/03 00:32:17;;;;;;;1.17;0.70;;;;;;;;;;5030845;28;20627;-75
2022/01/03 00:34:45;;;;;;;1.50;0.63;;;;;;;;;;5030807;28;20176;-75
2022/01/03 00:37:11;;;;;;;0.77;0.50;;;;;;;;;;5030660;28;20209;-75
2022/01/03 00:39:38;;;;;;;2.20;0.50;;;;;;;;;;5030917;28;20615;-75
2022/01/03 00:42:04;;;;;;;2.00;0.60;;;;;;;;;;5030850;28;20206;-75
2022/01/03 00:44:31;;;;;;;1.50;0.70;;;;;;;;;;5030660;28;20201;-75
2022/01/03 00:46:58;;;;;;;1.00;0.63;;;;;;;;;;5014339;28;20178;-75
2022/01/03 00:49:24;;;;;;;0.73;0.50;;;;;;;;;;5014586;28;20189;-75
2022/01/03 00:51:50;;;;;;;1.17;0.50;;;;;;;;;;5031034;28;20176;-75
2022/01/03 00:54:16;;;;;;;0.73;0.40;;;;;;;;;;5014105;28;20318;-75
2022/01/03 00:56:47;;;;;;;0.77;0.73;;;;;;;;;;5014236;28;20226;-75
2022/01/03 00:59:15;;;;;;;1.00;0.40;;;;;;;;;;5014502;28;20184;-75
2022/01/03 01:01:52;;;;;;;1.20;0.57;;;;;;;;;;5030684;28;20210;-75
2022/01/03 01:04:19;;;;;;;1.60;0.40;;;;;;;;;;5030710;28;20182;-75
2022/01/03 01:06:45;;;;;;;1.03;0.43;;;;;;;;;;5030697;28;20186;-75
2022/01/03 01:09:14;;;;;;;1.27;0.70;;;;;;;;;;5014214;28;20305;-75
2022/01/03 01:11:45;;;;;;;0.70;0.50;;;;;;;;;;5030450;28;20204;-75
2022/01/03 01:14:12;;;;;;;1.67;0.67;;;;;;;;;;5030699;28;20187;-75
2022/01/03 01:16:39;;;;;;;1.67;0.60;;;;;;;;;;5030634;28;20204;-75
2022/01/03 01:19:05;;;;;;;1.83;0.57;;;;;;;;;;5030644;28;20271;-75
2022/01/03 01:21:31;;;;;;;1.93;0.93;;;;;;;;;;5030495;28;20208;-75
2022/01/03 01:23:58;;;;;;;1.13;0.50;;;;;;;;;;5013702;28;20192;-75
2022/01/03 01:29:10;;;;;;;0.97;0.57;;;;;;;;;;5032286;28;20187;-75
2022/01/03 01:31:37;;;;;;;1.00;0.53;;;;;;;;;;5030573;28;20199;-75
2022/01/03 01:34:04;;;;;;;1.23;0.60;;;;;;;;;;5030507;28;20247;-75
2022/01/03 01:36:31;;;;;;;1.37;0.40;;;;;;;;;;5030374;28;20296;-75
2022/01/03 01:39:01;;;;;;;2.00;1.23;;;;;;;;;;5030386;28;20265;-75
2022/01/03 01:41:28;;;;;;;1.17;0.50;;;;;;;;;;5014039;28;20686;-75
2022/01/03 01:43:57;;;;;;;1.77;0.80;;;;;;;;;;5030212;28;20267;-75
2022/01/03 01:46:24;;;;;;;0.90;0.70;;;;;;;;;;5014446;28;20183;-75
2022/01/03 01:48:51;;;;;;;1.50;0.87;;;;;;;;;;5017539;28;20216;-75
2022/01/03 01:51:18;;;;;;;1.67;0.80;;;;;;;;;;5033787;28;20196;-75
2022/01/03 01:53:49;;;;;;;2.17;0.77;;;;;;;;;;5033839;28;20192;-75
2022/01/03 01:56:22;;;;;;;2.93;0.83;;;;;;;;;;5033932;28;20216;-75
2022/01/03 01:59:07;;;;;;;2.67;0.90;;;;;;;;;;5033628;28;20627;-75
2022/01/03 02:01:51;;;;;;;2.60;0.80;;;;;;;;;;5088737;22;20427;-80
2022/01/03 02:04:19;;;;;;;4.43;1.00;;;;;;;;;;5054088;28;20178;-79
2022/01/03 02:06:55;;;;;;;1.97;0.70;;;;;;;;;;5054009;28;20186;-80
2022/01/03 02:09:29;;;;;;;1.80;0.90;;;;;;;;;;5053851;28;20249;-79
2022/01/03 02:11:57;;;;;;;1.43;0.70;;;;;;;;;;5053968;28;20209;-80
2022/01/03 02:14:23;;;;;;;2.40;0.83;;;;;;;;;;5020646;28;20180;-80
2022/01/03 02:16:50;;;;;;;4.50;1.10;;;;;;;;;;5037353;28;20241;-80
2022/01/03 02:19:16;;;;;;;3.40;1.20;;;;;;;;;;5037305;28;20184;-80
2022/01/03 02:21:42;;;;;;;8.03;3.00;;;;;;;;;;5020934;28;20311;-82
2022/01/03 02:24:09;;;;;;;6.67;3.10;;;;;;;;;;5020334;28;20634;-81
2022/01/03 02:26:35;;;;;;;7.00;2.50;;;;;;;;;;5054943;28;20540;-80
2022/01/03 02:29:01;;;;;;;5.90;1.70;;;;;;;;;;5037381;28;20185;-80
2022/01/03 02:31:27;;;;;;;5.27;1.53;;;;;;;;;;5037196;28;20200;-80
2022/01/03 02:33:53;;;;;;;4.00;1.10;;;;;;;;;;5036913;28;20216;-80
2022/01/03 02:36:20;;;;;;;3.27;1.30;;;;;;;;;;5036877;28;20172;-80
2022/01/03 02:38:46;;;;;;;3.27;0.90;;;;;;;;;;5036754;28;20180;-80
2022/01/03 02:41:12;;;;;;;4.57;1.80;;;;;;;;;;5036832;28;20196;-80
2022/01/03 02:43:39;;;;;;;3.57;1.00;;;;;;;;;;5036685;28;20243;-80
2022/01/03 02:46:05;;;;;;;1.90;0.90;;;;;;;;;;5020367;28;20326;-80
2022/01/03 02:48:31;;;;;;;2.40;0.83;;;;;;;;;;5036466;28;20201;-81
2022/01/03 02:50:58;;;;;;;1.17;0.80;;;;;;;;;;5036843;28;20192;-80
2022/01/03 02:53:24;;;;;;;3.80;0.90;;;;;;;;;;5036323;28;20262;-80
2022/01/03 02:55:50;;;;;;;3.83;1.00;;;;;;;;;;5036451;28;20176;-80
2022/01/03 02:58:16;;;;;;;2.70;0.90;;;;;;;;;;5035982;28;20204;-80
2022/01/03 03:00:48;;;;;;;2.07;0.90;;;;;;;;;;5019961;28;20219;-80
2022/01/03 03:03:18;;;;;;;2.07;1.00;;;;;;;;;;5020260;28;20187;-80
2022/01/03 03:05:44;;;;;;;2.97;0.80;;;;;;;;;;5020003;28;20232;-80
2022/01/03 03:08:11;;;;;;;3.20;1.13;;;;;;;;;;5036140;28;20223;-80
2022/01/03 03:10:37;;;;;;;2.87;0.97;;;;;;;;;;5020269;28;20227;-80
2022/01/03 03:13:03;;;;;;;3.73;1.10;;;;;;;;;;5036034;28;20213;-81
2022/01/03 03:15:29;;;;;;;2.27;1.00;;;;;;;;;;5036239;28;20210;-81
2022/01/03 03:17:55;;;;;;;4.60;1.10;;;;;;;;;;5036291;28;20207;-80
2022/01/03 03:20:22;;;;;;;2.97;1.03;;;;;;;;;;5021518;28;20200;-80
2022/01/03 03:22:49;;;;;;;2.20;1.30;;;;;;;;;;5021530;28;20181;-80
2022/01/03 03:25:17;;;;;;;4.00;0.97;;;;;;;;;;5021081;28;20187;-80
2022/01/03 03:27:46;;;;;;;5.17;1.00;;;;;;;;;;5021386;28;20182;-80
2022/01/03 03:30:17;;;;;;;1.23;1.10;;;;;;;;;;5038043;28;20580;-80
2022/01/03 03:32:43;;;;;;;4.90;1.20;;;;;;;;;;5021290;28;20663;-80
2022/01/03 03:35:10;;;;;;;1.17;0.70;;;;;;;;;;5021276;28;20184;-80
2022/01/03 03:37:36;;;;;;;2.57;1.10;;;;;;;;;;5021151;28;20299;-80
2022/01/03 03:40:02;;;;;;;4.10;0.93;;;;;;;;;;5021323;28;20239;-80
2022/01/03 03:42:28;;;;;;;2.50;1.00;;;;;;;;;;5021316;28;20219;-80
2022/01/03 03:44:54;;;;;;;3.33;0.90;;;;;;;;;;5037626;28;20672;-80
2022/01/03 03:47:20;;;;;;;3.00;0.90;;;;;;;;;;5021341;28;20188;-80
2022/01/03 03:49:46;;;;;;;4.57;1.70;;;;;;;;;;5037496;28;20192;-80
2022/01/03 03:52:12;;;;;;;4.10;1.13;;;;;;;;;;5020761;28;20196;-80
2022/01/03 03:54:38;;;;;;;4.23;1.00;;;;;;;;;;5037156;28;20187;-80
2022/01/03 03:57:04;;;;;;;4.57;0.80;;;;;;;;;;5036940;28;20218;-80
2022/01/03 03:59:31;;;;;;;3.17;1.00;;;;;;;;;;5020336;28;20571;-80
2022/01/03 04:01:57;;;;;;;3.50;1.20;;;;;;;;;;5036775;28;20223;-80
2022/01/03 04:04:24;;;;;;;4.23;1.40;;;;;;;;;;5036586;28;20629;-80
2022/01/03 04:06:50;;;;;;;4.60;1.57;;;;;;;;;;5036682;28;20234;-80
2022/01/03 04:09:16;;;;;;;2.33;1.20;;;;;;;;;;5036967;28;20272;-80
2022/01/03 04:11:42;;;;;;;5.20;1.20;;;;;;;;;;5035685;28;20231;-80
2022/01/03 04:14:08;;;;;;;4.20;1.00;;;;;;;;;;5036748;28;20183;-80
2022/01/03 04:16:35;;;;;;;3.23;1.00;;;;;;;;;;5020164;28;20212;-80
2022/01/03 04:19:01;;;;;;;3.03;1.20;;;;;;;;;;5019880;28;20538;-80
2022/01/03 04:21:27;;;;;;;4.20;1.03;;;;;;;;;;5036323;28;20232;-79
2022/01/03 04:23:54;;;;;;;2.87;1.00;;;;;;;;;;5036234;28;20181;-80
2022/01/03 04:26:20;;;;;;;3.13;1.10;;;;;;;;;;5036312;28;20170;-80
2022/01/03 04:28:46;;;;;;;3.47;1.00;;;;;;;;;;5036713;28;20186;-80
2022/01/03 04:31:12;;;;;;;4.20;1.00;;;;;;;;;;5019745;28;20243;-80
2022/01/03 04:33:39;;;;;;;4.17;0.97;;;;;;;;;;5019539;28;20185;-80
2022/01/03 04:36:06;;;;;;;3.53;1.10;;;;;;;;;;5036700;28;20267;-80
2022/01/03 04:38:32;;;;;;;4.37;1.10;;;;;;;;;;5036356;28;20297;-80
2022/01/03 04:40:59;;;;;;;4.37;0.93;;;;;;;;;;5019819;28;20204;-80
2022/01/03 04:43:25;;;;;;;4.73;1.00;;;;;;;;;;5019893;28;20178;-80
2022/01/03 04:45:51;;;;;;;3.47;1.10;;;;;;;;;;5036150;28;20177;-80
2022/01/03 04:48:17;;;;;;;2.83;0.90;;;;;;;;;;5019797;28;20190;-79
2022/01/03 04:50:43;;;;;;;1.77;0.77;;;;;;;;;;5036014;28;20221;-80
2022/01/03 04:53:09;;;;;;;3.10;0.93;;;;;;;;;;5035494;28;20185;-80
2022/01/03 04:55:35;;;;;;;1.53;0.80;;;;;;;;;;5019959;28;20175;-80
2022/01/03 04:58:01;;;;;;;2.80;0.80;;;;;;;;;;5019430;28;20214;-80
2022/01/03 05:00:27;;;;;;;6.57;1.03;;;;;;;;;;5019221;28;20225;-80
2022/01/03 05:02:53;;;;;;;4.87;0.90;;;;;;;;;;5019333;28;20671;-80
2022/01/03 05:05:19;;;;;;;2.67;1.00;;;;;;;;;;5035837;28;20182;-80
2022/01/03 05:07:46;;;;;;;3.30;1.17;;;;;;;;;;5019758;28;20591;-80
2022/01/03 05:10:12;;;;;;;3.20;1.07;;;;;;;;;;5019540;28;20812;-80
2022/01/03 05:12:38;;;;;;;4.57;1.10;;;;;;;;;;5019451;28;20203;-79
2022/01/03 05:15:04;;;;;;;4.83;0.90;;;;;;;;;;5019675;28;20191;-80
2022/01/03 05:17:31;;;;;;;1.87;1.00;;;;;;;;;;5035865;28;20208;-80
2022/01/03 05:19:57;;;;;;;3.17;1.00;;;;;;;;;;5019587;28;20245;-80
2022/01/03 05:22:23;;;;;;;5.00;1.13;;;;;;;;;;5021144;28;20206;-80
2022/01/03 05:24:49;;;;;;;3.17;1.17;;;;;;;;;;5022703;28;20269;-80
2022/01/03 05:27:17;;;;;;;4.80;1.00;;;;;;;;;;5022852;28;20188;-80
2022/01/03 05:29:43;;;;;;;2.80;1.00;;;;;;;;;;5039745;28;20370;-80
2022/01/03 05:32:09;;;;;;;4.50;1.30;;;;;;;;;;5039358;28;20182;-80
2022/01/03 05:34:35;;;;;;;3.83;1.00;;;;;;;;;;5039403;28;20230;-80
2022/01/03 05:37:02;;;;;;;4.97;1.47;;;;;;;;;;5022951;28;20209;-80
2022/01/03 05:39:28;;;;;;;1.90;1.00;;;;;;;;;;5039214;28;20180;-80
2022/01/03 05:41:54;;;;;;;4.87;1.30;;;;;;;;;;5023224;28;20208;-80
2022/01/03 05:44:20;;;;;;;5.90;1.70;;;;;;;;;;5039567;28;20179;-80
2022/01/03 05:46:46;;;;;;;1.90;0.80;;;;;;;;;;5023214;28;20278;-80
2022/01/03 05:49:12;;;;;;;4.40;1.63;;;;;;;;;;5039817;28;20180;-80
2022/01/03 05:51:38;;;;;;;2.30;0.80;;;;;;;;;;5039679;28;20260;-80
2022/01/03 05:54:05;;;;;;;4.43;1.30;;;;;;;;;;5039142;28;20215;-80
2022/01/03 05:56:31;;;;;;;5.73;1.10;;;;;;;;;;5039276;28;20185;-80
2022/01/03 05:58:57;;;;;;;4.07;1.10;;;;;;;;;;5039343;28;20210;-79
2022/01/03 06:01:24;;;;;;;2.30;1.10;;;;;;;;;;5038817;28;20241;-80
2022/01/03 06:03:59;;;;;;;4.27;1.27;;;;;;;;;;5022642;28;20183;-80
2022/01/03 06:06:53;;;;;;;6.93;1.50;;;;;;;;;;5039156;28;20178;-80
2022/01/03 06:09:18;;;;;;;4.77;1.20;;;;;;;;;;5055543;28;20258;-81
2022/01/03 06:11:44;;;;;;;2.27;1.43;;;;;;;;;;5020499;28;20233;-81
2022/01/03 06:14:10;;;;;;;2.60;1.10;;;;;;;;;;5020828;28;20210;-81
2022/01/03 06:16:36;;;;;;;3.37;1.20;;;;;;;;;;5020741;28;20210;-81
2022/01/03 06:19:02;;;;;;;3.77;1.30;;;;;;;;;;5020620;28;20179;-81
2022/01/03 06:21:28;;;;;;;2.73;1.27;;;;;;;;;;5036922;28;20576;-81
2022/01/03 06:23:54;;;;;;;5.37;1.10;;;;;;;;;;5020379;28;20181;-81
2022/01/03 06:26:20;;;;;;;3.97;1.23;;;;;;;;;;5020082;28;20184;-81
2022/01/03 06:28:46;;;;;;;2.23;1.13;;;;;;;;;;5020456;28;20205;-81
2022/01/03 06:31:12;;;;;;;4.23;1.27;;;;;;;;;;5036874;28;20206;-81
2022/01/03 06:33:40;;;;;;;5.40;1.20;;;;;;;;;;5019577;28;20175;-81
2022/01/03 06:36:06;;;;;;;3.87;1.30;;;;;;;;;;5021054;28;20189;-81
2022/01/03 06:38:32;;;;;;;3.70;1.20;;;;;;;;;;5020223;28;20206;-82
2022/01/03 06:40:58;;;;;;;4.57;1.43;;;;;;;;;;5020277;28;20194;-82
2022/01/03 06:43:24;;;;;;;2.27;1.20;;;;;;;;;;5020250;28;20178;-81
2022/01/03 06:45:50;;;;;;;4.50;1.47;;;;;;;;;;5020156;28;20181;-81
2022/01/03 06:48:16;;;;;;;4.30;1.17;;;;;;;;;;5036503;28;20185;-81
2022/01/03 06:50:42;;;;;;;5.90;1.53;;;;;;;;;;5020267;28;20211;-82
2022/01/03 06:53:08;;;;;;;5.60;1.50;;;;;;;;;;5019840;28;20212;-82
2022/01/03 06:55:34;;;;;;;2.63;1.03;;;;;;;;;;5020197;28;20286;-82
2022/01/03 06:58:00;;;;;;;4.47;1.20;;;;;;;;;;5036306;28;20216;-81
2022/01/03 07:00:26;;;;;;;4.00;1.27;;;;;;;;;;5020047;28;20217;-81
2022/01/03 07:02:52;;;;;;;2.50;1.40;;;;;;;;;;5019831;28;20175;-81
2022/01/03 07:05:18;;;;;;;4.83;1.13;;;;;;;;;;5020163;28;20205;-80
2022/01/03 07:07:44;;;;;;;5.83;1.30;;;;;;;;;;5036424;28;20178;-79
2022/01/03 07:10:11;;;;;;;5.47;1.50;;;;;;;;;;5020352;28;20209;-79
2022/01/03 07:12:37;;;;;;;3.47;1.37;;;;;;;;;;5019578;28;20182;-77
2022/01/03 07:20:33;;;;;;;3.27;1.20;;;;;;;;;;5054616;28;20277;-81
2022/01/03 07:23:00;;;;;;;6.30;1.57;;;;;;;;;;5019379;28;20208;-80
2022/01/03 07:25:26;;;;;;;1.77;1.20;;;;;;;;;;5035920;28;20239;-79
2022/01/03 07:27:52;;;;;;;2.47;1.33;;;;;;;;;;5018956;28;20538;-79
2022/01/03 07:30:18;;;;;;;7.37;1.60;;;;;;;;;;5037606;28;20664;-80
2022/01/03 07:32:44;;;;;;;3.20;1.20;;;;;;;;;;5035370;28;20181;-81
2022/01/03 07:35:13;;;;;;;5.13;1.37;;;;;;;;;;5019533;28;20189;-80
2022/01/03 07:37:40;;;;;;;3.40;1.30;;;;;;;;;;5035598;28;20237;-82
2022/01/03 07:40:06;;;;;;;4.50;1.13;;;;;;;;;;5019190;28;20201;-81
2022/01/03 07:42:32;;;;;;;2.60;1.20;;;;;;;;;;5019281;28;20257;-80
2022/01/03 07:44:58;;;;;;;2.47;1.10;;;;;;;;;;5035581;28;20292;-79
2022/01/03 07:47:24;;;;;;;2.37;1.07;;;;;;;;;;5035286;28;20213;-80
2022/01/03 07:49:50;;;;;;;3.70;1.27;;;;;;;;;;5018909;28;20204;-79
2022/01/03 07:52:16;;;;;;;2.93;1.17;;;;;;;;;;5019042;28;20263;-79
2022/01/03 07:54:42;;;;;;;2.60;0.90;;;;;;;;;;5019256;28;20640;-80
2022/01/03 07:57:09;;;;;;;5.37;1.60;;;;;;;;;;5018719;28;20233;-79
2022/01/03 07:59:34;;;;;;;4.23;1.00;;;;;;;;;;5035031;28;20271;-79
2022/01/03 08:02:00;;;;;;;4.37;1.20;;;;;;;;;;5072357;23;20252;-81
2022/01/03 08:04:27;;;;;;;4.30;1.00;;;;;;;;;;5076538;28;20177;-81
2022/01/03 08:06:53;;;;;;;4.67;1.10;;;;;;;;;;5059287;28;20180;-81
2022/01/03 08:09:19;;;;;;;5.30;1.20;;;;;;;;;;5059458;28;20247;-81
2022/01/03 08:11:45;;;;;;;2.73;0.97;;;;;;;;;;5066785;28;20205;-81
2022/01/03 08:14:11;;;;;;;4.27;1.10;;;;;;;;;;5055685;28;20188;-81
2022/01/03 08:16:37;;;;;;;2.97;1.30;;;;;;;;;;5055863;28;20205;-81
2022/01/03 08:19:03;;;;;;;4.40;1.30;;;;;;;;;;5056191;28;20230;-81
2022/01/03 08:21:29;;;;;;;4.43;1.63;;;;;;;;;;5058533;28;20200;-81
2022/01/03 08:23:56;;;;;;;4.63;1.27;;;;;;;;;;5079590;28;20682;-81
2022/01/03 08:26:22;;;;;;;3.50;1.20;;;;;;;;;;5056041;28;20195;-81
2022/01/03 08:28:48;;;;;;;2.03;1.10;;;;;;;;;;5056199;28;20180;-81
2022/01/03 08:31:14;;;;;;;3.70;1.10;;;;;;;;;;5052696;28;20323;-81
2022/01/03 08:33:40;;;;;;;3.23;1.10;;;;;;;;;;5046271;28;20189;-81
2022/01/03 08:36:06;;;;;;;2.23;0.87;;;;;;;;;;5053200;28;20642;-80
2022/01/03 08:38:32;;;;;;;2.83;0.97;;;;;;;;;;5048677;28;20230;-81
2022/01/03 08:40:58;;;;;;;3.13;1.50;;;;;;;;;;5055988;28;20250;-81
2022/01/03 08:43:24;;;;;;;4.23;1.30;;;;;;;;;;5038880;28;20185;-81
2022/01/03 08:45:50;;;;;;;6.10;1.30;;;;;;;;;;5038761;28;20635;-81
2022/01/03 08:48:16;;;;;;;4.73;1.27;;;;;;;;;;5055530;28;20192;-81
2022/01/03 08:50:42;;;;;;;6.20;1.70;;;;;;;;;;5044922;28;20202;-81
2022/01/03 08:53:08;;;;;;;3.93;1.23;;;;;;;;;;5019099;28;20181;-81
2022/01/03 08:55:34;;;;;;;3.83;1.20;;;;;;;;;;5019269;28;20183;-81
2022/01/03 08:58:00;;;;;;;6.93;1.93;;;;;;;;;;5038614;28;20690;-81
2022/01/03 09:00:27;;;;;;;4.33;1.10;;;;;;;;;;5022648;28;20213;-81
2022/01/03 09:02:53;;;;;;;4.00;1.33;;;;;;;;;;5031017;28;20654;-81
2022/01/03 09:05:19;;;;;;;2.60;1.10;;;;;;;;;;5079481;28;20647;-81
2022/01/03 09:07:45;;;;;;;2.43;1.10;;;;;;;;;;5096417;28;20209;-81
2022/01/03 09:10:11;;;;;;;5.10;1.57;;;;;;;;;;5079925;28;20233;-81
2022/01/03 09:12:37;;;;;;;4.13;1.47;;;;;;;;;;5097563;28;20176;-81
2022/01/03 09:15:04;;;;;;;3.77;1.53;;;;;;;;;;5097983;28;20591;-80
2022/01/03 09:17:30;;;;;;;5.83;1.43;;;;;;;;;;5096955;28;20666;-80
2022/01/03 09:19:56;;;;;;;8.43;1.43;;;;;;;;;;5079669;28;20179;-81
2022/01/03 09:22:28;;;;;;;3.20;1.30;;;;;;;;;;5079414;28;20241;-81
2022/01/03 09:30:11;;;;;;;3.87;1.20;;;;;;;;;;5097546;28;20187;-81
2022/01/03 09:32:37;;;;;;;2.80;1.10;;;;;;;;;;5079223;28;20180;-80
2022/01/03 09:35:04;;;;;;;3.67;1.60;;;;;;;;;;5079352;28;20278;-80
2022/01/03 09:37:30;;;;;;;4.90;1.40;;;;;;;;;;5079674;28;20620;-80
2022/01/03 09:39:56;;;;;;;6.23;1.97;;;;;;;;;;5096534;28;20182;-81
2022/01/03 09:42:24;;;;;;;5.50;1.50;;;;;;;;;;5079681;28;20197;-81
2022/01/03 09:44:51;;;;;;;6.27;1.60;;;;;;;;;;5079816;28;20176;-80
2022/01/03 09:47:18;;;;;;;2.53;1.50;;;;;;;;;;5097604;28;20568;-80
2022/01/03 09:49:45;;;;;;;5.10;1.67;;;;;;;;;;5096209;28;20176;-78
2022/01/03 09:52:11;;;;;;;4.00;1.57;;;;;;;;;;5094555;28;20329;-81
2022/01/03 09:54:38;;;;;;;4.70;1.63;;;;;;;;;;5094173;28;20181;-82
2022/01/03 09:57:04;;;;;;;5.43;2.03;;;;;;;;;;5077322;28;20209;-82
2022/01/03 09:59:30;;;;;;;4.07;1.60;;;;;;;;;;5077033;28;20169;-82
2022/01/03 10:01:58;;;;;;;5.60;1.70;;;;;;;;;;5093998;28;20274;-82
2022/01/03 10:04:25;;;;;;;5.77;1.90;;;;;;;;;;5094051;28;20172;-82
2022/01/03 10:06:51;;;;;;;3.60;2.20;;;;;;;;;;5094009;28;20657;-82
2022/01/03 10:09:23;;;;;;;7.40;2.60;;;;;;;;;;5075919;28;20184;-82
2022/01/03 10:11:49;;;;;;;9.47;2.20;;;;;;;;;;5077666;28;20204;-81
2022/01/03 10:14:16;;;;;;;4.63;1.83;;;;;;;;;;5093762;28;20225;-81
2022/01/03 10:16:43;;;;;;;5.90;2.10;;;;;;;;;;5077206;28;20210;-81
2022/01/03 10:19:09;;;;;;;4.67;2.07;;;;;;;;;;5095844;28;20164;-82
2022/01/03 10:21:43;;;;;;;7.17;1.80;;;;;;;;;;5093763;28;20204;-81
2022/01/03 10:24:10;;;;;;;6.17;2.10;;;;;;;;;;5093629;28;20179;-82
2022/01/03 10:26:37;;;;;;;10.70;3.77;;;;;;;;;;5093722;28;20177;-82
2022/01/03 10:29:15;;;;;;;6.10;1.60;;;;;;;;;;5076995;28;20189;-82
2022/01/03 10:31:42;;;;;;;6.57;2.03;;;;;;;;;;5093579;28;20202;-82
2022/01/03 10:34:10;;;;;;;6.70;3.23;;;;;;;;;;5093517;28;20259;-83
2022/01/03 10:36:37;;;;;;;5.60;2.80;;;;;;;;;;5093382;28;20172;-82
2022/01/03 10:39:15;;;;;;;6.60;3.67;;;;;;;;;;5093552;28;20167;-82
2022/01/03 10:41:41;;;;;;;3.87;1.90;;;;;;;;;;5093305;28;20285;-82
2022/01/03 10:44:09;;;;;;;8.10;2.40;;;;;;;;;;5093152;28;20659;-82
2022/01/03 10:46:36;;;;;;;7.97;1.97;;;;;;;;;;5093123;28;20197;-82
2022/01/03 10:49:07;;;;;;;7.97;1.90;;;;;;;;;;5094454;28;20178;-83
2022/01/03 10:51:33;;;;;;;7.33;2.37;;;;;;;;;;5093964;28;20188;-80
2022/01/03 10:53:59;;;;;;;7.67;1.90;;;;;;;;;;5077024;28;20170;-81
2022/01/03 10:56:33;;;;;;;7.10;2.10;;;;;;;;;;5076769;28;20264;-81
2022/01/03 10:59:15;;;;;;;5.00;2.57;;;;;;;;;;5076595;28;20255;-82
2022/01/03 11:01:42;;;;;;;6.40;2.20;;;;;;;;;;5092957;28;20296;-82
2022/01/03 11:04:10;;;;;;;10.33;2.77;;;;;;;;;;5076780;28;20230;-79
2022/01/03 11:06:49;;;;;;;6.87;1.90;;;;;;;;;;5077155;28;20203;-81
2022/01/03 11:12:16;;;;;;;4.37;1.77;;;;;;;;;;5079735;28;20640;-81
2022/01/03 11:14:42;;;;;;;6.97;2.27;;;;;;;;;;5093213;28;20203;-81
2022/01/03 11:17:21;;;;;;;10.10;2.70;;;;;;;;;;5075995;28;20237;-81
2022/01/03 11:19:47;;;;;;;6.03;2.20;;;;;;;;;;5093973;28;20185;-82
2022/01/03 11:22:33;;;;;;;14.67;4.97;;;;;;;;;;5076287;28;20293;-81
2022/01/03 11:24:59;;;;;;;8.37;2.07;;;;;;;;;;5092896;28;20544;-80
2022/01/03 11:27:25;;;;;;;6.47;1.70;;;;;;;;;;5093245;28;20170;-81
2022/01/03 11:29:52;;;;;;;8.47;2.20;;;;;;;;;;5076150;28;20185;-80
2022/01/03 11:32:19;;;;;;;7.93;3.03;;;;;;;;;;5076728;28;20572;-80
2022/01/03 11:34:45;;;;;;;9.90;2.90;;;;;;;;;;5075723;28;20187;-78
2022/01/03 11:37:11;;;;;;;8.27;2.00;;;;;;;;;;5092337;28;20213;-78
2022/01/03 11:39:37;;;;;;;6.43;2.80;;;;;;;;;;5075218;28;20177;-78
2022/01/03 11:42:03;;;;;;;5.60;1.97;;;;;;;;;;5075561;28;20198;-82
2022/01/03 11:44:30;;;;;;;9.67;2.47;;;;;;;;;;5092205;28;20172;-82
2022/01/03 11:46:56;;;;;;;6.57;1.80;;;;;;;;;;5092349;28;20183;-82
2022/01/03 11:49:22;;;;;;;6.17;2.00;;;;;;;;;;5092400;28;20175;-82
2022/01/03 11:51:48;;;;;;;5.27;1.77;;;;;;;;;;5075759;28;20203;-82
2022/01/03 11:54:16;;;;;;;6.67;2.27;;;;;;;;;;5075216;28;20190;-82
2022/01/03 11:56:47;;;;;;;7.73;2.27;;;;;;;;;;5075612;28;20194;-82
2022/01/03 12:04:25;;;;;;;6.00;1.77;;;;;;;;;;5093184;28;20185;-82
2022/01/03 12:07:01;;;;;;;13.47;5.87;;;;;;;;;;5091884;28;20300;-82
2022/01/03 12:09:29;;;;;;;14.83;6.70;;;;;;;;;;5091848;28;20181;-82
2022/01/03 12:11:56;;;;;;;5.23;2.37;;;;;;;;;;5075212;28;20279;-82
2022/01/03 12:14:23;;;;;;;7.03;2.07;;;;;;;;;;5074905;28;20185;-82
2022/01/03 12:16:50;;;;;;;9.50;3.10;;;;;;;;;;5091582;28;20554;-82
2022/01/03 12:19:22;;;;;;;8.00;2.23;;;;;;;;;;5075194;28;20683;-82
2022/01/03 12:21:48;;;;;;;6.43;1.93;;;;;;;;;;5091598;28;20289;-82
2022/01/03 12:24:27;;;;;;;7.33;1.50;;;;;;;;;;5091306;28;20666;-82
2022/01/03 12:27:14;;;;;;;7.10;1.63;;;;;;;;;;5091661;28;20179;-82
2022/01/03 12:29:58;;;;;;;3.63;1.73;;;;;;;;;;5092031;28;20176;-82
2022/01/03 12:32:41;;;;;;;6.10;1.50;;;;;;;;;;5091840;28;20207;-82
2022/01/03 12:35:07;;;;;;;4.30;2.03;;;;;;;;;;5076186;28;20715;-82
2022/01/03 12:37:34;;;;;;;4.57;1.50;;;;;;;;;;5093294;28;20208;-82
2022/01/03 12:40:06;;;;;;;3.70;1.40;;;;;;;;;;5092755;28;20170;-82
2022/01/03 12:42:48;;;;;;;6.80;1.77;;;;;;;;;;5093154;28;20198;-82
2022/01/03 12:45:29;;;;;;;4.47;1.57;;;;;;;;;;5092591;28;20180;-82
2022/01/03 12:47:56;;;;;;;5.37;1.53;;;;;;;;;;5092113;28;20200;-82
2022/01/03 12:50:24;;;;;;;5.50;1.87;;;;;;;;;;5075579;28;20261;-82
2022/01/03 12:52:50;;;;;;;3.80;1.73;;;;;;;;;;5049835;28;20193;-81
2022/01/03 12:55:34;;;;;;;3.83;1.60;;;;;;;;;;5048482;28;20174;-82
2022/01/03 12:58:00;;;;;;;4.20;1.63;;;;;;;;;;5054451;28;20666;-82
2022/01/03 13:00:43;;;;;;;4.03;2.10;;;;;;;;;;5037838;28;20200;-82
2022/01/03 13:03:28;;;;;;;5.80;3.10;;;;;;;;;;5057512;28;20184;-82
2022/01/03 13:06:06;;;;;;;4.53;2.63;;;;;;;;;;5056007;28;20279;-82
2022/01/03 13:08:32;;;;;;;2.40;1.30;;;;;;;;;;5056300;28;20264;-83
2022/01/03 13:11:12;;;;;;;4.83;2.30;;;;;;;;;;5049505;28;20205;-82
2022/01/03 13:13:38;;;;;;;10.50;6.00;;;;;;;;;;5040533;28;20231;-82
2022/01/03 13:16:18;;;;;;;8.07;2.97;;;;;;;;;;5071459;28;20185;-82
2022/01/03 13:18:47;;;;;;;6.33;3.07;;;;;;;;;;5055001;28;20262;-82
2022/01/03 13:21:14;;;;;;;8.00;4.43;;;;;;;;;;5054974;28;20200;-82
2022/01/03 13:24:01;;;;;;;8.47;3.83;;;;;;;;;;5054567;28;20181;-82
2022/01/03 13:26:28;;;;;;;6.63;3.60;;;;;;;;;;5055041;28;20190;-81
2022/01/03 13:28:59;;;;;;;5.10;2.40;;;;;;;;;;5054712;28;20165;-82
2022/01/03 13:31:25;;;;;;;3.40;1.50;;;;;;;;;;5055454;28;20255;-82
2022/01/03 13:33:58;;;;;;;5.10;3.00;;;;;;;;;;5054314;28;20172;-82
2022/01/03 13:36:40;;;;;;;3.53;2.07;;;;;;;;;;5055558;28;20180;-82
2022/01/03 13:39:09;;;;;;;4.13;2.37;;;;;;;;;;5057660;28;20169;-82
2022/01/03 13:41:37;;;;;;;4.30;3.13;;;;;;;;;;5057232;28;20224;-82
2022/01/03 13:44:03;;;;;;;6.53;3.80;;;;;;;;;;5061022;28;20200;-82
2022/01/03 13:49:17;;;;;;;3.73;2.07;;;;;;;;;;5077304;28;20226;-82
2022/01/03 13:51:47;;;;;;;3.03;1.17;;;;;;;;;;5058381;28;20202;-82
2022/01/03 13:54:25;;;;;;;1.13;0.73;;;;;;;;;;5057911;28;20549;-82
2022/01/03 13:56:52;;;;;;;2.53;1.33;;;;;;;;;;5058266;28;20291;-82
2022/01/03 13:59:18;;;;;;;1.57;0.90;;;;;;;;;;5058641;28;20177;-82
2022/01/03 14:01:45;;;;;;;1.97;0.80;;;;;;;;;;5089462;23;20305;-80
2022/01/03 14:04:11;;;;;;;2.83;0.97;;;;;;;;;;5057786;28;20589;-80
2022/01/03 14:06:37;;;;;;;1.53;0.97;;;;;;;;;;5057750;28;20188;-80
2022/01/03 14:09:14;;;;;;;2.37;0.90;;;;;;;;;;5024270;28;20254;-80
2022/01/03 14:11:40;;;;;;;2.00;1.10;;;;;;;;;;5057745;28;20199;-80
2022/01/03 14:14:13;;;;;;;1.90;0.80;;;;;;;;;;5024585;28;20227;-80
2022/01/03 14:17:01;;;;;;;2.37;0.90;;;;;;;;;;5040490;28;20185;-80
2022/01/03 14:19:28;;;;;;;2.77;1.20;;;;;;;;;;5041782;28;20175;-81
2022/01/03 14:21:55;;;;;;;3.10;1.37;;;;;;;;;;5040847;28;20245;-80
2022/01/03 14:24:23;;;;;;;2.77;1.20;;;;;;;;;;5041115;28;20178;-80
2022/01/03 14:26:56;;;;;;;2.33;1.10;;;;;;;;;;5025157;28;20193;-81
2022/01/03 14:29:23;;;;;;;2.47;1.00;;;;;;;;;;5041384;28;20244;-80
2022/01/03 14:31:49;;;;;;;2.20;1.13;;;;;;;;;;5041214;28;20641;-80
2022/01/03 14:34:36;;;;;;;4.50;1.27;;;;;;;;;;5041182;28;20175;-80
2022/01/03 14:37:03;;;;;;;3.73;1.20;;;;;;;;;;5024838;28;20207;-80
2022/01/03 14:39:30;;;;;;;3.87;1.37;;;;;;;;;;5024854;28;20189;-80
2022/01/03 14:41:57;;;;;;;2.63;1.30;;;;;;;;;;5024714;28;20554;-80
2022/01/03 14:44:25;;;;;;;4.17;1.60;;;;;;;;;;5040437;28;20171;-80
2022/01/03 14:46:59;;;;;;;3.50;1.80;;;;;;;;;;5024984;28;20259;-80
2022/01/03 14:49:25;;;;;;;4.90;1.83;;;;;;;;;;5040855;28;20184;-80
2022/01/03 14:51:51;;;;;;;6.10;1.90;;;;;;;;;;5024510;28;20203;-80
2022/01/03 14:54:17;;;;;;;5.40;1.63;;;;;;;;;;5040229;28;20204;-80
2022/01/03 14:56:44;;;;;;;5.07;2.13;;;;;;;;;;5040649;28;20641;-80
2022/01/03 14:59:17;;;;;;;6.03;2.00;;;;;;;;;;5058488;28;20175;-81
2022/01/03 15:01:45;;;;;;;6.43;2.00;;;;;;;;;;5024247;28;20696;-80
2022/01/03 15:04:12;;;;;;;5.13;2.20;;;;;;;;;;5023894;28;20180;-80
2022/01/03 15:06:38;;;;;;;8.33;2.30;;;;;;;;;;5040314;28;20176;-80
2022/01/03 15:09:04;;;;;;;9.20;2.80;;;;;;;;;;5040532;28;20268;-80
2022/01/03 15:11:30;;;;;;;7.50;2.27;;;;;;;;;;5023815;28;20271;-80